sensor_id;sensor_type;location;lat;lon;timestamp;pressure;altitude;pressure_sealevel;temperature;humidity
53699;BME280;39591;53.952;27.612;2022-09-12T00:03:17;1002.8;;;11.4;79.1
53699;BME280;39591;53.952;27.612;2022-09-12T00:09:01;1002.8;;;11.5;79
53699;BME280;39591;53.952;27.612;2022-09-12T00:13:47;1002.8;;;11.5;78.8
53699;BME280;39591;53.952;27.612;2022-09-12T00:18:39;1002.8;;;11.5;78.8
53699;BME280;39591;53.952;27.612;2022-09-12T00:23:53;1002.8;;;11.5;78.8
53699;BME280;39591;53.952;27.612;2022-09-12T00:28:47;1002.8;;;11.5;78.5
53699;BME280;39591;53.952;27.612;2022-09-12T00:33:37;1002.8;;;11.5;78.2
53699;BME280;39591;53.952;27.612;2022-09-12T00:38:47;1002.9;;;11.5;78
53699;BME280;39591;53.952;27.612;2022-09-12T00:44:00;1002.9;;;11.5;78.1
53699;BME280;39591;53.952;27.612;2022-09-12T00:48:30;1002.9;;;11.5;78
53699;BME280;39591;53.952;27.612;2022-09-12T00:53:47;1002.9;;;11.4;78.1
53699;BME280;39591;53.952;27.612;2022-09-12T00:59:04;1002.9;;;11.4;78
53699;BME280;39591;53.952;27.612;2022-09-12T01:03:53;1002.8;;;11.4;77.9
53699;BME280;39591;53.952;27.612;2022-09-12T01:09:00;1002.8;;;11.5;77.9
53699;BME280;39591;53.952;27.612;2022-09-12T01:13:42;1002.8;;;11.5;77.7
53699;BME280;39591;53.952;27.612;2022-09-12T01:24:10;1002.8;;;11.5;77.7
53699;BME280;39591;53.952;27.612;2022-09-12T01:28:47;1002.8;;;11.4;77.8
53699;BME280;39591;53.952;27.612;2022-09-12T01:33:22;1002.8;;;11.4;78.1
53699;BME280;39591;53.952;27.612;2022-09-12T01:38:26;1002.8;;;11.4;78.2
53699;BME280;39591;53.952;27.612;2022-09-12T01:43:19;1002.9;;;11.4;78.2
53699;BME280;39591;53.952;27.612;2022-09-12T01:48:18;1002.9;;;11.4;78.3
53699;BME280;39591;53.952;27.612;2022-09-12T01:53:31;1002.9;;;11.4;78.3
53699;BME280;39591;53.952;27.612;2022-09-12T01:59:02;1003;;;11.3;78.3
53699;BME280;39591;53.952;27.612;2022-09-12T02:04:03;1003;;;11.3;78.5
53699;BME280;39591;53.952;27.612;2022-09-12T02:08:27;1002.9;;;11.3;78.5
53699;BME280;39591;53.952;27.612;2022-09-12T02:13:52;1003;;;11.3;78.5
53699;BME280;39591;53.952;27.612;2022-09-12T02:19:16;1003;;;11.3;78.6
53699;BME280;39591;53.952;27.612;2022-09-12T02:24:03;1003;;;11.2;78.8
53699;BME280;39591;53.952;27.612;2022-09-12T02:28:30;1003;;;11.2;79.2
53699;BME280;39591;53.952;27.612;2022-09-12T02:33:43;1003.1;;;11.2;79.2
53699;BME280;39591;53.952;27.612;2022-09-12T02:39:01;1003.1;;;11.2;79.1
53699;BME280;39591;53.952;27.612;2022-09-12T02:43:47;1003.1;;;11.1;79.3
53699;BME280;39591;53.952;27.612;2022-09-12T02:48:41;1003.1;;;11.1;79.4
53699;BME280;39591;53.952;27.612;2022-09-12T02:53:53;1003.2;;;11.1;79.4
53699;BME280;39591;53.952;27.612;2022-09-12T02:58:49;1003.2;;;11;79.7
53699;BME280;39591;53.952;27.612;2022-09-12T03:09:22;1003.2;;;11;79.8
53699;BME280;39591;53.952;27.612;2022-09-12T03:14:21;1003.2;;;11;80
53699;BME280;39591;53.952;27.612;2022-09-12T03:18:20;1003.3;;;11;79.8
53699;BME280;39591;53.952;27.612;2022-09-12T03:23:31;1003.3;;;11;79.9
53699;BME280;39591;53.952;27.612;2022-09-12T03:28:27;1003.3;;;11;79.8
53699;BME280;39591;53.952;27.612;2022-09-12T03:34:05;1003.3;;;11;79.7
53699;BME280;39591;53.952;27.612;2022-09-12T03:39:03;1003.3;;;11;79.6
53699;BME280;39591;53.952;27.612;2022-09-12T03:43:41;1003.4;;;10.9;79.7
53699;BME280;39591;53.952;27.612;2022-09-12T03:49:03;1003.4;;;10.9;79.7
53699;BME280;39591;53.952;27.612;2022-09-12T03:53:53;1003.4;;;10.9;79.7
53699;BME280;39591;53.952;27.612;2022-09-12T03:58:29;1003.4;;;10.9;79.7
53699;BME280;39591;53.952;27.612;2022-09-12T04:03:27;1003.4;;;11;79.7
53699;BME280;39591;53.952;27.612;2022-09-12T04:08:40;1003.5;;;11;79.6
53699;BME280;39591;53.952;27.612;2022-09-12T04:13:49;1003.5;;;11;79.6
53699;BME280;39591;53.952;27.612;2022-09-12T04:18:17;1003.6;;;10.9;79.7
53699;BME280;39591;53.952;27.612;2022-09-12T04:23:29;1003.6;;;10.9;80
53699;BME280;39591;53.952;27.612;2022-09-12T04:29:03;1003.7;;;11;80
53699;BME280;39591;53.952;27.612;2022-09-12T04:33:53;1003.7;;;11;79.7
53699;BME280;39591;53.952;27.612;2022-09-12T04:38:39;1003.8;;;10.9;79.7
53699;BME280;39591;53.952;27.612;2022-09-12T04:43:41;1003.9;;;10.9;79.7
53699;BME280;39591;53.952;27.612;2022-09-12T04:48:43;1003.9;;;10.8;79.8
53699;BME280;39591;53.952;27.612;2022-09-12T04:54:07;1003.9;;;10.8;79.9
53699;BME280;39591;53.952;27.612;2022-09-12T04:58:27;1004;;;10.8;79.8
53699;BME280;39591;53.952;27.612;2022-09-12T05:03:53;1004;;;10.8;79.3
53699;BME280;39591;53.952;27.612;2022-09-12T05:08:17;1004;;;10.7;79.4
53699;BME280;39591;53.952;27.612;2022-09-12T05:13:49;1004;;;10.7;79
53699;BME280;39591;53.952;27.612;2022-09-12T05:18:27;1004;;;10.8;78.9
53699;BME280;39591;53.952;27.612;2022-09-12T05:23:50;1004;;;10.8;78.7
53699;BME280;39591;53.952;27.612;2022-09-12T05:28:50;1004;;;10.9;78.5
53699;BME280;39591;53.952;27.612;2022-09-12T05:33:52;1004.1;;;11;77.9
53699;BME280;39591;53.952;27.612;2022-09-12T05:38:49;1004;;;10.9;77.9
53699;BME280;39591;53.952;27.612;2022-09-12T05:44:06;1004.1;;;11;78
53699;BME280;39591;53.952;27.612;2022-09-12T05:48:29;1004.1;;;11;77.5
53699;BME280;39591;53.952;27.612;2022-09-12T05:53:51;1004.1;;;11;77.7
53699;BME280;39591;53.952;27.612;2022-09-12T05:58:27;1004.2;;;11;77.8
53699;BME280;39591;53.952;27.612;2022-09-12T06:04:03;1004.2;;;10.9;77.8
53699;BME280;39591;53.952;27.612;2022-09-12T06:09:02;1004.2;;;10.9;77.9
53699;BME280;39591;53.952;27.612;2022-09-12T06:13:40;1004.3;;;10.9;77.8
53699;BME280;39591;53.952;27.612;2022-09-12T06:19:03;1004.3;;;10.8;77.9
53699;BME280;39591;53.952;27.612;2022-09-12T06:23:49;1004.4;;;10.8;78.1
53699;BME280;39591;53.952;27.612;2022-09-12T06:28:39;1004.5;;;10.7;78.2
53699;BME280;39591;53.952;27.612;2022-09-12T06:33:40;1004.5;;;10.7;78
53699;BME280;39591;53.952;27.612;2022-09-12T06:38:39;1004.4;;;10.8;77.3
53699;BME280;39591;53.952;27.612;2022-09-12T06:43:17;1004.5;;;10.9;76.7
53699;BME280;39591;53.952;27.612;2022-09-12T06:48:27;1004.5;;;10.9;76.7
53699;BME280;39591;53.952;27.612;2022-09-12T06:53:37;1004.5;;;11;76.6
53699;BME280;39591;53.952;27.612;2022-09-12T06:59:01;1004.6;;;11;76.7
53699;BME280;39591;53.952;27.612;2022-09-12T07:03:50;1004.6;;;11.1;76.9
53699;BME280;39591;53.952;27.612;2022-09-12T07:08:27;1004.7;;;11.1;76.6
53699;BME280;39591;53.952;27.612;2022-09-12T07:13:50;1004.8;;;11.2;76.4
53699;BME280;39591;53.952;27.612;2022-09-12T07:18:36;1004.8;;;11.2;76.4
53699;BME280;39591;53.952;27.612;2022-09-12T07:23:51;1004.9;;;11.1;76.5
53699;BME280;39591;53.952;27.612;2022-09-12T07:28:17;1004.9;;;11.1;76.2
53699;BME280;39591;53.952;27.612;2022-09-12T07:33:17;1004.9;;;11.1;76.4
53699;BME280;39591;53.952;27.612;2022-09-12T07:38:29;1005;;;11.1;76.6
53699;BME280;39591;53.952;27.612;2022-09-12T07:43:41;1005;;;11.2;76.6
53699;BME280;39591;53.952;27.612;2022-09-12T07:48:49;1005.1;;;11.2;76.3
53699;BME280;39591;53.952;27.612;2022-09-12T07:53:17;1005.1;;;11.2;76.2
53699;BME280;39591;53.952;27.612;2022-09-12T07:58:51;1005.2;;;11.1;76.1
53699;BME280;39591;53.952;27.612;2022-09-12T08:03:52;1005.2;;;11.1;76.2
53699;BME280;39591;53.952;27.612;2022-09-12T08:08:35;1005.2;;;11.1;75.8
53699;BME280;39591;53.952;27.612;2022-09-12T08:13:47;1005.3;;;11.2;75.8
53699;BME280;39591;53.952;27.612;2022-09-12T08:19:02;1005.3;;;11.2;76
53699;BME280;39591;53.952;27.612;2022-09-12T08:23:17;1005.3;;;11.3;75.7
53699;BME280;39591;53.952;27.612;2022-09-12T08:28:17;1005.3;;;11.4;75.3
53699;BME280;39591;53.952;27.612;2022-09-12T08:34:03;1005.3;;;11.4;75.4
53699;BME280;39591;53.952;27.612;2022-09-12T08:38:25;1005.2;;;11.4;75.5
53699;BME280;39591;53.952;27.612;2022-09-12T08:45:08;1005.2;;;11.5;74.8
53699;BME280;39591;53.952;27.612;2022-09-12T08:48:39;1005.2;;;11.7;74.3
53699;BME280;39591;53.952;27.612;2022-09-12T08:53:51;1005.2;;;11.9;73.7
53699;BME280;39591;53.952;27.612;2022-09-12T08:58:59;1005.3;;;12.1;73.1
53699;BME280;39591;53.952;27.612;2022-09-12T09:03:47;1005.3;;;12.2;72.9
53699;BME280;39591;53.952;27.612;2022-09-12T09:09:43;1005.3;;;12.2;72.9
53699;BME280;39591;53.952;27.612;2022-09-12T09:14:35;1005.3;;;12.2;72.6
53699;BME280;39591;53.952;27.612;2022-09-12T09:18:30;1005.3;;;12.2;72.3
53699;BME280;39591;53.952;27.612;2022-09-12T09:23:29;1005.4;;;12.3;72.2
53699;BME280;39591;53.952;27.612;2022-09-12T09:28:41;1005.4;;;12.3;71.8
53699;BME280;39591;53.952;27.612;2022-09-12T09:34:05;1005.4;;;12.3;71.7
53699;BME280;39591;53.952;27.612;2022-09-12T09:40:04;1005.5;;;12.2;71.7
53699;BME280;39591;53.952;27.612;2022-09-12T09:43:49;1005.5;;;12.2;71.9
53699;BME280;39591;53.952;27.612;2022-09-12T09:49:01;1005.5;;;12.3;71.9
53699;BME280;39591;53.952;27.612;2022-09-12T09:54:03;1005.6;;;12.2;72
53699;BME280;39591;53.952;27.612;2022-09-12T09:59:15;1005.6;;;12.1;72.5
53699;BME280;39591;53.952;27.612;2022-09-12T10:03:23;1005.6;;;12.1;72
53699;BME280;39591;53.952;27.612;2022-09-12T10:08:30;1005.6;;;12.2;71.9
53699;BME280;39591;53.952;27.612;2022-09-12T10:13:53;1005.6;;;12.1;72
53699;BME280;39591;53.952;27.612;2022-09-12T10:18:45;1005.6;;;12.2;71.7
53699;BME280;39591;53.952;27.612;2022-09-12T10:23:50;1005.6;;;12.3;71.7
53699;BME280;39591;53.952;27.612;2022-09-12T10:28:50;1005.6;;;12.4;70.8
53699;BME280;39591;53.952;27.612;2022-09-12T10:33:46;1005.7;;;12.4;71
53699;BME280;39591;53.952;27.612;2022-09-12T10:38:26;1005.7;;;12.4;71.4
53699;BME280;39591;53.952;27.612;2022-09-12T10:43:36;1005.7;;;12.4;71.2
53699;BME280;39591;53.952;27.612;2022-09-12T10:49:31;1005.8;;;12.4;70.7
53699;BME280;39591;53.952;27.612;2022-09-12T10:53:49;1005.8;;;12.4;70.8
53699;BME280;39591;53.952;27.612;2022-09-12T10:58:30;1005.8;;;12.5;70.5
53699;BME280;39591;53.952;27.612;2022-09-12T11:04:37;1005.9;;;12.6;70.3
53699;BME280;39591;53.952;27.612;2022-09-12T11:08:51;1005.9;;;12.7;70.2
53699;BME280;39591;53.952;27.612;2022-09-12T11:14:09;1006;;;12.6;70.3
53699;BME280;39591;53.952;27.612;2022-09-12T11:18:49;1006;;;12.6;70.5
53699;BME280;39591;53.952;27.612;2022-09-12T11:23:55;1006.1;;;12.5;70.8
53699;BME280;39591;53.952;27.612;2022-09-12T11:30:08;1006.1;;;12.4;71
53699;BME280;39591;53.952;27.612;2022-09-12T11:33:41;1006.2;;;12.4;71
53699;BME280;39591;53.952;27.612;2022-09-12T11:38:21;1006.2;;;12.4;71.2
53699;BME280;39591;53.952;27.612;2022-09-12T11:43:50;1006.2;;;12.3;71.7
53699;BME280;39591;53.952;27.612;2022-09-12T11:48:43;1006.2;;;12.3;71.8
53699;BME280;39591;53.952;27.612;2022-09-12T11:53:39;1006.2;;;12.2;72.1
53699;BME280;39591;53.952;27.612;2022-09-12T11:58:27;1006.3;;;12.2;72.3
53699;BME280;39591;53.952;27.612;2022-09-12T12:04:00;1006.3;;;12.1;73
53699;BME280;39591;53.952;27.612;2022-09-12T12:08:46;1006.4;;;12;73.9
53699;BME280;39591;53.952;27.612;2022-09-12T12:13:46;1006.4;;;11.9;74.2
53699;BME280;39591;53.952;27.612;2022-09-12T12:18:39;1006.5;;;11.9;74.1
53699;BME280;39591;53.952;27.612;2022-09-12T12:24:20;1006.5;;;11.9;74.2
53699;BME280;39591;53.952;27.612;2022-09-12T12:28:59;1006.5;;;11.9;74.3
53699;BME280;39591;53.952;27.612;2022-09-12T12:38:31;1006.5;;;12.1;73.8
53699;BME280;39591;53.952;27.612;2022-09-12T12:43:29;1006.5;;;12.2;73.3
53699;BME280;39591;53.952;27.612;2022-09-12T12:49:52;1006.5;;;12.3;72.7
53699;BME280;39591;53.952;27.612;2022-09-12T12:53:21;1006.4;;;12.4;72
53699;BME280;39591;53.952;27.612;2022-09-12T12:58:41;1006.4;;;12.5;71.5
53699;BME280;39591;53.952;27.612;2022-09-12T13:03:55;1006.5;;;12.6;71
53699;BME280;39591;53.952;27.612;2022-09-12T13:08:56;1006.5;;;12.7;70.7
53699;BME280;39591;53.952;27.612;2022-09-12T13:13:51;1006.5;;;12.9;70.2
53699;BME280;39591;53.952;27.612;2022-09-12T13:19:10;1006.5;;;13.1;70
53699;BME280;39591;53.952;27.612;2022-09-12T13:23:20;1006.5;;;13.3;69.3
53699;BME280;39591;53.952;27.612;2022-09-12T13:28:28;1006.5;;;13.4;69.1
53699;BME280;39591;53.952;27.612;2022-09-12T13:33:19;1006.5;;;13.5;68.8
53699;BME280;39591;53.952;27.612;2022-09-12T13:39:24;1006.6;;;13.4;68.8
53699;BME280;39591;53.952;27.612;2022-09-12T13:44:06;1006.6;;;13.3;69
53699;BME280;39591;53.952;27.612;2022-09-12T13:48:51;1006.7;;;13.1;69.3
53699;BME280;39591;53.952;27.612;2022-09-12T13:54:03;1006.7;;;13;69.6
53699;BME280;39591;53.952;27.612;2022-09-12T13:58:55;1006.7;;;13;69.6
53699;BME280;39591;53.952;27.612;2022-09-12T14:03:40;1006.8;;;12.9;69.7
53699;BME280;39591;53.952;27.612;2022-09-12T14:08:27;1006.8;;;12.9;69.9
53699;BME280;39591;53.952;27.612;2022-09-12T14:13:19;1006.9;;;12.9;69.9
53699;BME280;39591;53.952;27.612;2022-09-12T14:18:30;1006.9;;;12.9;69.8
53699;BME280;39591;53.952;27.612;2022-09-12T14:23:20;1006.9;;;12.9;69.9
53699;BME280;39591;53.952;27.612;2022-09-12T14:28:40;1006.9;;;13;69.6
53699;BME280;39591;53.952;27.612;2022-09-12T14:34:10;1006.9;;;13;69.6
53699;BME280;39591;53.952;27.612;2022-09-12T14:38:48;1006.9;;;13;69.5
53699;BME280;39591;53.952;27.612;2022-09-12T14:43:51;1006.9;;;13.1;69.3
53699;BME280;39591;53.952;27.612;2022-09-12T14:48:42;1006.9;;;13.2;69.2
53699;BME280;39591;53.952;27.612;2022-09-12T14:53:49;1006.9;;;13.1;69.3
53699;BME280;39591;53.952;27.612;2022-09-12T14:59:37;1007;;;13;69.6
53699;BME280;39591;53.952;27.612;2022-09-12T15:03:26;1007;;;12.9;69.9
53699;BME280;39591;53.952;27.612;2022-09-12T15:08:37;1007;;;12.7;70.6
53699;BME280;39591;53.952;27.612;2022-09-12T15:13:27;1007;;;12.6;71
53699;BME280;39591;53.952;27.612;2022-09-12T15:18:47;1007;;;12.6;71.1
53699;BME280;39591;53.952;27.612;2022-09-12T15:23:53;1007.1;;;12.5;71.5
53699;BME280;39591;53.952;27.612;2022-09-12T15:28:52;1007.1;;;12.5;72
53699;BME280;39591;53.952;27.612;2022-09-12T15:33:49;1007.2;;;12.4;72.5
53699;BME280;39591;53.952;27.612;2022-09-12T15:38:50;1007.3;;;12.3;73.3
53699;BME280;39591;53.952;27.612;2022-09-12T15:43:48;1007.3;;;12.2;73.8
53699;BME280;39591;53.952;27.612;2022-09-12T15:49:01;1007.4;;;12.2;73.9
53699;BME280;39591;53.952;27.612;2022-09-12T15:53:27;1007.4;;;12.3;73.9
53699;BME280;39591;53.952;27.612;2022-09-12T15:58:37;1007.4;;;12.3;74.1
53699;BME280;39591;53.952;27.612;2022-09-12T16:03:30;1007.4;;;12.3;74.3
53699;BME280;39591;53.952;27.612;2022-09-12T16:09:03;1007.5;;;12.2;74.6
53699;BME280;39591;53.952;27.612;2022-09-12T16:14:01;1007.5;;;12.1;75.1
53699;BME280;39591;53.952;27.612;2022-09-12T16:18:40;1007.5;;;12;75.3
53699;BME280;39591;53.952;27.612;2022-09-12T16:24:03;1007.5;;;12;75.7
53699;BME280;39591;53.952;27.612;2022-09-12T16:28:17;1007.5;;;12;75.8
53699;BME280;39591;53.952;27.612;2022-09-12T16:33:38;1007.6;;;12.1;75.6
53699;BME280;39591;53.952;27.612;2022-09-12T16:38:40;1007.7;;;12;75.7
53699;BME280;39591;53.952;27.612;2022-09-12T16:43:52;1007.7;;;11.9;76.1
53699;BME280;39591;53.952;27.612;2022-09-12T16:48:17;1007.8;;;11.9;76.5
53699;BME280;39591;53.952;27.612;2022-09-12T16:53:42;1007.8;;;11.8;76.6
53699;BME280;39591;53.952;27.612;2022-09-12T16:58:40;1007.8;;;11.7;77.3
53699;BME280;39591;53.952;27.612;2022-09-12T17:03:37;1007.9;;;11.6;77.6
53699;BME280;39591;53.952;27.612;2022-09-12T17:09:03;1007.9;;;11.6;77.7
53699;BME280;39591;53.952;27.612;2022-09-12T17:14:02;1007.9;;;11.6;77.9
53699;BME280;39591;53.952;27.612;2022-09-12T17:18:39;1007.9;;;11.5;77.9
53699;BME280;39591;53.952;27.612;2022-09-12T17:24:02;1007.9;;;11.6;77.8
53699;BME280;39591;53.952;27.612;2022-09-12T17:29:01;1008;;;11.5;77.9
53699;BME280;39591;53.952;27.612;2022-09-12T17:34:03;1008;;;11.6;77.9
53699;BME280;39591;53.952;27.612;2022-09-12T17:38:38;1008;;;11.6;78
53699;BME280;39591;53.952;27.612;2022-09-12T17:43:27;1008;;;11.5;78.1
53699;BME280;39591;53.952;27.612;2022-09-12T17:49:05;1008;;;11.6;77.9
53699;BME280;39591;53.952;27.612;2022-09-12T17:54:21;1008;;;11.7;77.6
53699;BME280;39591;53.952;27.612;2022-09-12T17:58:39;1008;;;11.6;77.4
53699;BME280;39591;53.952;27.612;2022-09-12T18:03:53;1008;;;11.6;77.5
53699;BME280;39591;53.952;27.612;2022-09-12T18:08:37;1008;;;11.6;77.7
53699;BME280;39591;53.952;27.612;2022-09-12T18:13:39;1008;;;11.6;77.7
53699;BME280;39591;53.952;27.612;2022-09-12T18:18:38;1008;;;11.5;78
53699;BME280;39591;53.952;27.612;2022-09-12T18:24:04;1008;;;11.5;78
53699;BME280;39591;53.952;27.612;2022-09-12T18:28:27;1008;;;11.5;78
53699;BME280;39591;53.952;27.612;2022-09-12T18:33:18;1008;;;11.5;78.2
53699;BME280;39591;53.952;27.612;2022-09-12T18:39:01;1008;;;11.6;78
53699;BME280;39591;53.952;27.612;2022-09-12T18:44:04;1008;;;11.6;77.8
53699;BME280;39591;53.952;27.612;2022-09-12T18:49:02;1008;;;11.6;77.7
53699;BME280;39591;53.952;27.612;2022-09-12T18:53:42;1008;;;11.6;77.7
53699;BME280;39591;53.952;27.612;2022-09-12T18:58:51;1008;;;11.5;78
53699;BME280;39591;53.952;27.612;2022-09-12T19:04:04;1008;;;11.5;78
53699;BME280;39591;53.952;27.612;2022-09-12T19:08:40;1008;;;11.5;78.1
53699;BME280;39591;53.952;27.612;2022-09-12T19:13:28;1008;;;11.6;77.9
53699;BME280;39591;53.952;27.612;2022-09-12T19:18:40;1008;;;11.7;77.7
53699;BME280;39591;53.952;27.612;2022-09-12T19:23:18;1008;;;11.7;77.6
53699;BME280;39591;53.952;27.612;2022-09-12T19:28:28;1008;;;11.8;77.4
53699;BME280;39591;53.952;27.612;2022-09-12T19:33:48;1008;;;11.8;77.2
53699;BME280;39591;53.952;27.612;2022-09-12T19:39:02;1008;;;11.8;77.3
53699;BME280;39591;53.952;27.612;2022-09-12T19:44:04;1008;;;11.8;77.2
53699;BME280;39591;53.952;27.612;2022-09-12T19:48:39;1008;;;11.8;77.2
53699;BME280;39591;53.952;27.612;2022-09-12T19:54:01;1008;;;11.9;76.9
53699;BME280;39591;53.952;27.612;2022-09-12T19:59:02;1008;;;11.9;76.9
53699;BME280;39591;53.952;27.612;2022-09-12T20:04:02;1007.9;;;11.9;76.9
53699;BME280;39591;53.952;27.612;2022-09-12T20:08:28;1007.9;;;11.8;76.9
53699;BME280;39591;53.952;27.612;2022-09-12T20:13:18;1007.9;;;11.9;76.7
53699;BME280;39591;53.952;27.612;2022-09-12T20:19:03;1007.9;;;11.9;76.7
53699;BME280;39591;53.952;27.612;2022-09-12T20:23:50;1007.9;;;11.9;76.6
53699;BME280;39591;53.952;27.612;2022-09-12T20:28:28;1007.9;;;11.9;76.9
53699;BME280;39591;53.952;27.612;2022-09-12T20:33:50;1007.9;;;11.9;76.8
53699;BME280;39591;53.952;27.612;2022-09-12T20:38:47;1007.9;;;11.8;77.1
53699;BME280;39591;53.952;27.612;2022-09-12T20:43:40;1007.9;;;11.8;77.1
53699;BME280;39591;53.952;27.612;2022-09-12T20:48:48;1007.9;;;11.9;77
53699;BME280;39591;53.952;27.612;2022-09-12T20:54:00;1007.9;;;11.8;77
53699;BME280;39591;53.952;27.612;2022-09-12T20:58:18;1007.9;;;11.8;77.3
53699;BME280;39591;53.952;27.612;2022-09-12T21:03:18;1007.9;;;11.8;77.4
53699;BME280;39591;53.952;27.612;2022-09-12T21:08:38;1007.9;;;11.8;77.3
53699;BME280;39591;53.952;27.612;2022-09-12T21:14:00;1007.9;;;11.9;77.1
53699;BME280;39591;53.952;27.612;2022-09-12T21:19:00;1007.8;;;12;76.9
53699;BME280;39591;53.952;27.612;2022-09-12T21:23:40;1007.8;;;11.9;76.9
53699;BME280;39591;53.952;27.612;2022-09-12T21:29:02;1007.8;;;11.8;77
53699;BME280;39591;53.952;27.612;2022-09-12T21:33:52;1007.8;;;11.9;77.1
53699;BME280;39591;53.952;27.612;2022-09-12T21:38:18;1007.7;;;11.9;77.1
53699;BME280;39591;53.952;27.612;2022-09-12T21:43:38;1007.7;;;11.9;77
53699;BME280;39591;53.952;27.612;2022-09-12T21:48:42;1007.7;;;11.9;77
53699;BME280;39591;53.952;27.612;2022-09-12T21:53:18;1007.8;;;11.9;76.9
53699;BME280;39591;53.952;27.612;2022-09-12T21:58:30;1007.7;;;11.9;76.9
53699;BME280;39591;53.952;27.612;2022-09-12T22:03:40;1007.7;;;12;76.9
53699;BME280;39591;53.952;27.612;2022-09-12T22:09:00;1007.8;;;12;76.6
53699;BME280;39591;53.952;27.612;2022-09-12T22:13:50;1007.8;;;12.1;76.4
53699;BME280;39591;53.952;27.612;2022-09-12T22:18:40;1007.8;;;12;76.4
53699;BME280;39591;53.952;27.612;2022-09-12T22:23:38;1007.8;;;12;76.7
53699;BME280;39591;53.952;27.612;2022-09-12T22:28:28;1007.8;;;12;76.6
53699;BME280;39591;53.952;27.612;2022-09-12T22:34:02;1007.8;;;12;76.7
53699;BME280;39591;53.952;27.612;2022-09-12T22:38:40;1007.9;;;12;76.6
53699;BME280;39591;53.952;27.612;2022-09-12T22:43:50;1007.9;;;12;76.6
53699;BME280;39591;53.952;27.612;2022-09-12T22:48:30;1008;;;12;76.8
53699;BME280;39591;53.952;27.612;2022-09-12T22:53:50;1008;;;12;76.7
53699;BME280;39591;53.952;27.612;2022-09-12T22:58:38;1008;;;11.9;76.8
53699;BME280;39591;53.952;27.612;2022-09-12T23:03:52;1008;;;11.9;77
53699;BME280;39591;53.952;27.612;2022-09-12T23:08:48;1008.1;;;11.9;76.9
53699;BME280;39591;53.952;27.612;2022-09-12T23:13:46;1008;;;11.9;77.1
53699;BME280;39591;53.952;27.612;2022-09-12T23:18:46;1008.1;;;11.9;77
53699;BME280;39591;53.952;27.612;2022-09-12T23:23:58;1008;;;12;76.9
53699;BME280;39591;53.952;27.612;2022-09-12T23:28:28;1008;;;12;76.9
53699;BME280;39591;53.952;27.612;2022-09-12T23:33:36;1008;;;12.1;76.6
53699;BME280;39591;53.952;27.612;2022-09-12T23:38:18;1008;;;12.1;76.6
53699;BME280;39591;53.952;27.612;2022-09-12T23:43:50;1007.9;;;12;76.7
53699;BME280;39591;53.952;27.612;2022-09-12T23:48:54;1007.9;;;12;76.8
53699;BME280;39591;53.952;27.612;2022-09-12T23:53:50;1007.9;;;12;76.8
53699;BME280;39591;53.952;27.612;2022-09-12T23:58:56;1007.8;;;12;76.8
